createdAt,value
2022-11-16T00:02:22.009Z,10.48
2022-11-16T00:05:28.104Z,9.96
2022-11-16T00:08:31.034Z,10.14
2022-11-16T00:11:33.253Z,10.33
2022-11-16T00:14:35.393Z,10.42
2022-11-16T00:17:37.261Z,10.68
2022-11-16T00:20:39.393Z,10.60
2022-11-16T00:23:41.206Z,10.56
2022-11-16T00:26:43.294Z,10.37
2022-11-16T00:29:45.126Z,10.50
2022-11-16T00:32:46.942Z,10.67
2022-11-16T00:35:48.732Z,11.17
2022-11-16T00:38:51.988Z,10.82
2022-11-16T00:41:53.811Z,11.35
2022-11-16T00:44:55.610Z,9.97
2022-11-16T00:48:00.487Z,10.36
2022-11-16T00:51:02.677Z,9.90
2022-11-16T00:54:05.293Z,10.09
2022-11-16T00:57:07.068Z,9.61
2022-11-16T01:00:09.801Z,9.69
2022-11-16T01:03:11.719Z,9.58
2022-11-16T01:06:14.059Z,9.39
2022-11-16T01:09:15.820Z,9.71
2022-11-16T01:12:17.678Z,9.89
2022-11-16T01:15:20.157Z,9.65
2022-11-16T01:18:21.983Z,9.89
2022-11-16T01:21:24.214Z,10.30
2022-11-16T01:24:26.358Z,10.10
2022-11-16T01:27:29.022Z,9.56
2022-11-16T01:30:30.882Z,9.91
2022-11-16T01:33:32.694Z,10.16
2022-11-16T01:36:36.697Z,10.03
2022-11-16T01:39:38.526Z,9.84
2022-11-16T01:42:40.736Z,9.81
2022-11-16T01:45:42.631Z,9.79
2022-11-16T01:48:44.454Z,9.70
2022-11-16T01:51:47.544Z,10.06
2022-11-16T01:54:50.149Z,10.03
2022-11-16T01:57:51.973Z,9.65
2022-11-16T02:00:53.820Z,9.78
2022-11-16T02:03:55.680Z,9.33
2022-11-16T02:06:57.478Z,9.82
2022-11-16T02:10:10.761Z,9.13
2022-11-16T02:13:19.266Z,9.73
2022-11-16T02:16:21.087Z,9.37
2022-11-16T02:19:38.011Z,9.65
2022-11-16T02:22:53.128Z,9.95
2022-11-16T02:26:13.808Z,9.72
2022-11-16T02:29:38.622Z,9.89
2022-11-16T02:32:40.348Z,10.44
2022-11-16T02:35:42.147Z,10.03
2022-11-16T02:38:46.554Z,9.62
2022-11-16T02:41:48.371Z,10.01
2022-11-16T02:44:50.351Z,9.71
2022-11-16T02:47:52.396Z,10.10
2022-11-16T02:50:54.315Z,10.16
2022-11-16T02:54:00.396Z,9.68
2022-11-16T02:57:02.189Z,9.89
2022-11-16T03:00:04.701Z,10.16
2022-11-16T03:03:12.502Z,10.17
2022-11-16T03:06:16.801Z,10.14
2022-11-16T03:09:19.663Z,10.53
2022-11-16T03:12:24.384Z,10.24
2022-11-16T03:15:26.294Z,9.74
2022-11-16T03:18:29.062Z,9.66
2022-11-16T03:21:33.245Z,10.19
2022-11-16T03:24:35.029Z,10.75
2022-11-16T03:27:59.877Z,10.34
2022-11-16T03:31:03.321Z,9.99
2022-11-16T03:34:06.797Z,10.00
2022-11-16T03:37:08.622Z,10.45
2022-11-16T03:40:10.535Z,10.08
2022-11-16T03:43:12.312Z,10.02
2022-11-16T03:46:14.365Z,10.40
2022-11-16T03:49:16.280Z,10.36
2022-11-16T03:52:18.364Z,10.48
2022-11-16T03:55:20.184Z,9.74
2022-11-16T03:58:21.987Z,9.93
2022-11-16T04:01:23.834Z,10.10
2022-11-16T04:04:44.468Z,10.45
2022-11-16T04:08:06.352Z,10.32
2022-11-16T04:11:30.711Z,10.43
2022-11-16T04:14:51.395Z,10.22
2022-11-16T04:18:11.860Z,10.43
2022-11-16T04:21:36.464Z,10.26
2022-11-16T04:24:38.770Z,10.67
2022-11-16T04:27:58.925Z,10.64
2022-11-16T04:31:19.654Z,10.72
2022-11-16T04:34:40.063Z,10.74
2022-11-16T04:37:52.690Z,10.63
2022-11-16T04:40:54.635Z,10.72
2022-11-16T04:43:57.300Z,10.85
2022-11-16T04:47:08.212Z,10.52
2022-11-16T04:50:10.181Z,10.44
2022-11-16T04:53:12.001Z,10.80
2022-11-16T04:56:13.848Z,10.10
2022-11-16T04:59:15.747Z,10.19
2022-11-16T05:02:17.613Z,10.34
2022-11-16T05:05:19.517Z,10.02
2022-11-16T05:08:21.389Z,9.60
2022-11-16T05:11:23.798Z,10.61
2022-11-16T05:14:25.652Z,10.95
2022-11-16T05:17:27.951Z,11.24
2022-11-16T05:20:48.641Z,10.61
2022-11-16T05:24:09.057Z,10.23
2022-11-16T05:27:12.402Z,10.00
2022-11-16T05:30:14.188Z,9.78
2022-11-16T05:33:17.917Z,10.14
2022-11-16T05:36:19.728Z,10.43
2022-11-16T05:39:21.737Z,10.19
2022-11-16T05:42:23.622Z,9.68
2022-11-16T05:45:25.410Z,10.19
2022-11-16T05:48:27.264Z,10.67
2022-11-16T05:51:29.260Z,10.55
2022-11-16T05:54:31.420Z,10.14
2022-11-16T05:57:33.509Z,10.14
2022-11-16T06:00:35.326Z,10.41
2022-11-16T06:03:37.294Z,10.19
2022-11-16T06:06:39.394Z,10.40
2022-11-16T06:09:41.322Z,11.07
2022-11-16T06:12:43.149Z,10.04
2022-11-16T06:15:50.390Z,10.38
2022-11-16T06:18:52.241Z,10.98
2022-11-16T06:21:54.046Z,10.99
2022-11-16T06:24:55.962Z,10.55
2022-11-16T06:27:58.230Z,10.65
2022-11-16T06:31:00.094Z,10.85
2022-11-16T06:34:01.929Z,10.81
2022-11-16T06:37:05.556Z,11.33
2022-11-16T06:40:07.718Z,10.80
2022-11-16T06:43:09.571Z,9.91
2022-11-16T06:46:11.458Z,10.96
2022-11-16T06:49:13.419Z,10.61
2022-11-16T06:52:15.244Z,11.59
2022-11-16T06:55:17.156Z,11.32
2022-11-16T06:58:18.965Z,10.49
2022-11-16T07:01:20.947Z,11.32
2022-11-16T07:04:22.972Z,11.28
2022-11-16T07:07:24.818Z,11.14
2022-11-16T07:10:26.644Z,11.52
2022-11-16T07:13:28.441Z,10.80
2022-11-16T07:16:30.359Z,10.89
2022-11-16T07:19:32.318Z,10.58
2022-11-16T07:22:34.159Z,11.23
2022-11-16T07:25:36.023Z,11.80
2022-11-16T07:28:39.980Z,11.03
2022-11-16T07:31:45.493Z,11.52
2022-11-16T07:34:47.375Z,11.89
2022-11-16T07:37:49.253Z,10.52
2022-11-16T07:40:51.183Z,10.60
2022-11-16T07:43:54.528Z,10.79
2022-11-16T07:46:56.680Z,10.58
2022-11-16T07:49:58.568Z,10.47
2022-11-16T07:53:00.404Z,10.51
2022-11-16T07:56:02.381Z,11.41
2022-11-16T07:59:06.003Z,11.89
2022-11-16T08:02:09.558Z,10.76
2022-11-16T08:05:11.759Z,11.37
2022-11-16T08:08:13.796Z,10.63
2022-11-16T08:11:15.895Z,10.41
2022-11-16T08:14:19.409Z,10.46
2022-11-16T08:17:21.309Z,10.34
2022-11-16T08:20:25.959Z,10.38
2022-11-16T08:23:31.154Z,11.42
2022-11-16T08:26:33.013Z,11.04
2022-11-16T08:29:34.819Z,11.17
2022-11-16T08:32:36.805Z,11.63
2022-11-16T08:35:38.666Z,12.09
2022-11-16T08:38:40.768Z,11.73
2022-11-16T08:41:44.330Z,10.84
2022-11-16T08:44:47.322Z,10.95
2022-11-16T08:47:49.198Z,11.54
2022-11-16T08:51:15.870Z,11.32
2022-11-16T08:54:13.018Z,11.62
2022-11-16T08:57:14.857Z,10.33
2022-11-16T09:00:17.152Z,11.80
2022-11-16T09:03:19.064Z,11.26
2022-11-16T09:06:21.119Z,11.87
2022-11-16T09:09:23.375Z,11.64
2022-11-16T09:12:25.462Z,11.37
2022-11-16T09:15:28.148Z,12.32
2022-11-16T09:18:30.600Z,10.98
2022-11-16T09:21:32.735Z,12.03
2022-11-16T09:24:34.722Z,12.26
2022-11-16T09:27:37.025Z,12.08
2022-11-16T09:30:38.867Z,11.19
2022-11-16T09:33:40.853Z,11.30
2022-11-16T09:36:42.925Z,11.04
2022-11-16T09:39:44.852Z,11.35
2022-11-16T09:42:52.907Z,11.86
2022-11-16T09:45:54.852Z,11.33
2022-11-16T09:48:56.853Z,10.53
2022-11-16T09:52:00.495Z,11.47
2022-11-16T09:55:04.081Z,11.56
2022-11-16T09:58:08.310Z,11.52
2022-11-16T10:01:25.727Z,11.14
2022-11-16T10:04:38.387Z,11.92
2022-11-16T10:07:50.550Z,11.74
2022-11-16T10:10:55.434Z,10.76
2022-11-16T10:14:05.521Z,11.06
2022-11-16T10:17:26.194Z,10.91
2022-11-16T10:20:30.813Z,11.40
2022-11-16T10:23:51.917Z,11.76
2022-11-16T10:26:55.256Z,11.62
2022-11-16T10:30:00.151Z,12.19
2022-11-16T10:33:10.954Z,11.85
2022-11-16T10:36:14.020Z,12.60
2022-11-16T10:39:17.170Z,12.09
2022-11-16T10:42:21.204Z,11.43
2022-11-16T10:45:34.045Z,11.41
2022-11-16T10:48:42.562Z,11.85
2022-11-16T10:51:44.438Z,12.24
2022-11-16T10:54:48.619Z,12.54
2022-11-16T10:57:58.772Z,11.43
2022-11-16T11:01:00.830Z,11.55
2022-11-16T11:04:11.888Z,12.25
2022-11-16T11:07:24.677Z,11.08
2022-11-16T11:10:34.348Z,11.91
2022-11-16T11:13:36.609Z,12.45
2022-11-16T11:16:38.883Z,11.65
2022-11-16T11:19:41.075Z,10.99
2022-11-16T11:22:56.170Z,11.15
2022-11-16T11:25:58.718Z,10.86
2022-11-16T11:29:00.677Z,11.56
2022-11-16T11:32:14.620Z,11.31
2022-11-16T11:35:25.683Z,11.50
2022-11-16T11:38:27.533Z,12.24
2022-11-16T11:41:32.878Z,11.52
2022-11-16T11:44:37.819Z,11.61
2022-11-16T11:48:00.267Z,11.79
2022-11-16T11:51:14.173Z,11.77
2022-11-16T11:54:19.039Z,11.36
2022-11-16T11:57:22.188Z,11.03
2022-11-16T12:00:26.376Z,11.85
2022-11-16T12:03:46.449Z,11.77
2022-11-16T12:07:00.740Z,11.53
2022-11-16T12:10:05.867Z,11.07
2022-11-16T12:13:26.502Z,11.41
2022-11-16T12:16:28.382Z,11.52
2022-11-16T12:19:36.274Z,12.48
2022-11-16T12:23:02.600Z,11.84
2022-11-16T12:26:11.761Z,12.37
2022-11-16T12:29:29.219Z,11.85
2022-11-16T12:32:54.432Z,12.27
2022-11-16T12:36:03.583Z,12.28
2022-11-16T12:39:08.686Z,12.52
2022-11-16T12:42:13.642Z,12.64
2022-11-16T12:45:29.101Z,12.28
2022-11-16T12:49:00.428Z,12.45
2022-11-16T12:52:06.239Z,11.93
2022-11-16T12:58:45.297Z,12.56
2022-11-16T13:02:05.298Z,12.45
2022-11-16T13:05:12.841Z,11.70
2022-11-16T13:08:17.239Z,12.26
2022-11-16T13:11:19.330Z,12.34
2022-11-16T13:14:24.522Z,12.62
2022-11-16T13:17:31.413Z,12.63
2022-11-16T13:20:36.051Z,12.45
2022-11-16T13:23:46.294Z,11.62
2022-11-16T13:26:56.744Z,11.71
2022-11-16T13:30:16.132Z,11.45
2022-11-16T13:33:27.861Z,11.71
2022-11-16T13:36:32.923Z,12.66
2022-11-16T13:39:52.802Z,12.51
2022-11-16T13:42:57.721Z,12.50
2022-11-16T13:45:59.658Z,12.05
2022-11-16T13:49:01.585Z,11.17
2022-11-16T13:52:22.783Z,10.92
2022-11-16T13:55:30.042Z,11.66
2022-11-16T13:58:32.098Z,11.90
2022-11-16T14:01:53.177Z,11.58
2022-11-16T14:04:56.208Z,12.15
2022-11-16T14:07:58.028Z,12.71
2022-11-16T14:11:00.139Z,11.91
2022-11-16T14:14:05.864Z,11.56
2022-11-16T14:17:07.730Z,12.17
2022-11-16T14:20:10.638Z,12.54
2022-11-16T14:23:18.592Z,12.59
2022-11-16T14:26:26.499Z,11.55
2022-11-16T14:29:47.151Z,11.20
2022-11-16T14:32:55.315Z,11.62
2022-11-16T14:35:57.230Z,12.41
2022-11-16T14:39:00.816Z,12.23
2022-11-16T14:42:18.809Z,11.73
2022-11-16T14:45:24.860Z,11.38
2022-11-16T14:48:26.697Z,11.23
2022-11-16T14:51:32.235Z,11.29
2022-11-16T14:54:38.665Z,11.38
2022-11-16T14:57:40.520Z,11.18
2022-11-16T15:00:42.494Z,10.77
2022-11-16T15:03:54.739Z,11.13
2022-11-16T15:06:57.888Z,11.10
2022-11-16T15:09:59.812Z,11.24
2022-11-16T15:13:01.727Z,11.10
2022-11-16T15:16:16.971Z,10.85
2022-11-16T15:19:18.912Z,11.45
2022-11-16T15:22:20.763Z,11.45
2022-11-16T15:25:24.170Z,11.34
2022-11-16T15:28:26.865Z,11.36
2022-11-16T15:31:29.819Z,11.56
2022-11-16T15:34:32.792Z,11.60
2022-11-16T15:37:34.831Z,11.98
2022-11-16T15:40:36.706Z,11.21
2022-11-16T15:43:45.443Z,11.14
2022-11-16T15:46:57.374Z,11.74
2022-11-16T15:49:59.215Z,10.90
2022-11-16T15:53:01.027Z,10.92
2022-11-16T15:56:03.577Z,11.53
2022-11-16T15:59:12.000Z,11.33
2022-11-16T16:02:18.163Z,11.51
2022-11-16T16:05:23.971Z,11.22
2022-11-16T16:08:27.731Z,11.58
2022-11-16T16:11:29.605Z,10.48
2022-11-16T16:14:31.476Z,11.12
2022-11-16T16:17:33.417Z,11.57
2022-11-16T16:20:35.256Z,11.77
2022-11-16T16:23:44.280Z,11.34
2022-11-16T16:26:46.146Z,10.79
2022-11-16T16:29:48.776Z,10.66
2022-11-16T16:32:50.667Z,10.55
2022-11-16T16:35:52.604Z,10.79
2022-11-16T16:38:54.579Z,11.10
2022-11-16T16:41:56.446Z,11.38
2022-11-16T16:44:59.027Z,10.70
2022-11-16T16:48:00.988Z,11.63
2022-11-16T16:51:02.864Z,10.93
2022-11-16T16:54:04.672Z,10.68
2022-11-16T16:57:06.516Z,10.30
2022-11-16T17:00:09.749Z,10.28
2022-11-16T17:03:11.699Z,10.39
2022-11-16T17:06:14.013Z,10.49
2022-11-16T17:09:15.898Z,11.30
2022-11-16T17:12:17.765Z,11.22
2022-11-16T17:15:19.776Z,10.56
2022-11-16T17:18:22.016Z,10.95
2022-11-16T17:21:24.014Z,10.25
2022-11-16T17:24:25.873Z,10.48
2022-11-16T17:27:27.730Z,10.70
2022-11-16T17:30:29.732Z,10.62
2022-11-16T17:33:35.264Z,10.24
2022-11-16T17:36:37.331Z,10.93
2022-11-16T17:39:39.842Z,10.88
2022-11-16T17:42:43.122Z,10.12
2022-11-16T17:45:44.925Z,10.44
2022-11-16T17:48:47.398Z,10.74
2022-11-16T17:51:49.313Z,10.83
2022-11-16T17:54:51.126Z,11.30
2022-11-16T17:57:52.972Z,11.68
2022-11-16T18:00:54.887Z,10.78
2022-11-16T18:03:56.842Z,10.89
2022-11-16T18:07:00.566Z,11.03
2022-11-16T18:10:02.513Z,10.71
2022-11-16T18:13:04.994Z,11.08
2022-11-16T18:16:08.717Z,10.10
2022-11-16T18:19:14.562Z,10.38
2022-11-16T18:22:16.399Z,10.57
2022-11-16T18:25:18.231Z,10.39
2022-11-16T18:28:20.032Z,10.34
2022-11-16T18:31:22.543Z,10.63
2022-11-16T18:34:24.617Z,10.91
2022-11-16T18:37:26.467Z,10.84
2022-11-16T18:40:28.965Z,10.10
2022-11-16T18:43:30.884Z,10.83
2022-11-16T18:46:32.896Z,11.31
2022-11-16T18:49:34.755Z,10.43
2022-11-16T18:52:36.562Z,10.75
2022-11-16T18:55:38.534Z,10.56
2022-11-16T18:58:55.863Z,10.57
2022-11-16T19:01:57.681Z,11.03
2022-11-16T19:04:59.478Z,10.63
2022-11-16T19:08:01.309Z,10.96
2022-11-16T19:11:06.587Z,10.79
2022-11-16T19:14:08.540Z,10.99
2022-11-16T19:17:10.409Z,11.03
2022-11-16T19:20:12.555Z,11.07
2022-11-16T19:23:14.377Z,11.47
2022-11-16T19:26:17.066Z,11.70
2022-11-16T19:29:19.069Z,10.84
2022-11-16T19:32:20.868Z,10.35
2022-11-16T19:35:22.740Z,10.57
2022-11-16T19:38:24.568Z,11.02
2022-11-16T19:41:26.851Z,10.80
2022-11-16T19:44:31.011Z,10.88
2022-11-16T19:47:32.832Z,10.74
2022-11-16T19:50:35.228Z,10.66
2022-11-16T19:53:37.494Z,10.82
2022-11-16T19:56:39.672Z,9.69
2022-11-16T19:59:41.461Z,10.38
2022-11-16T20:02:43.290Z,10.54
2022-11-16T20:05:45.069Z,10.03
2022-11-16T20:08:50.626Z,9.81
2022-11-16T20:11:52.450Z,10.43
2022-11-16T20:14:54.307Z,10.08
2022-11-16T20:17:56.103Z,9.58
2022-11-16T20:21:07.295Z,10.58
2022-11-16T20:24:13.330Z,11.09
2022-11-16T20:27:15.155Z,10.95
2022-11-16T20:30:17.006Z,10.74
2022-11-16T20:33:19.050Z,11.15
2022-11-16T20:36:22.917Z,11.17
2022-11-16T20:39:24.801Z,10.73
2022-11-16T20:42:26.664Z,10.73
2022-11-16T20:45:28.545Z,10.50
2022-11-16T20:48:30.367Z,10.09
2022-11-16T20:51:32.229Z,10.73
2022-11-16T20:54:34.166Z,10.69
2022-11-16T20:57:36.009Z,11.04
2022-11-16T21:00:37.836Z,10.54
2022-11-16T21:03:39.911Z,11.42
2022-11-16T21:06:41.753Z,11.57
2022-11-16T21:10:02.251Z,11.62
2022-11-16T21:13:23.174Z,10.51
2022-11-16T21:16:25.269Z,10.71
2022-11-16T21:19:27.142Z,11.06
2022-11-16T21:22:32.314Z,10.65
2022-11-16T21:25:34.792Z,11.15
2022-11-16T21:28:36.772Z,10.67
2022-11-16T21:31:38.593Z,10.46
2022-11-16T21:34:40.467Z,10.84
2022-11-16T21:37:42.294Z,10.69
2022-11-16T21:40:44.153Z,10.83
2022-11-16T21:43:46.062Z,11.05
2022-11-16T21:46:47.902Z,10.92
2022-11-16T21:50:16.954Z,10.78
2022-11-16T21:53:11.522Z,10.79
2022-11-16T21:56:17.229Z,10.77
2022-11-16T21:59:19.048Z,10.79
2022-11-16T22:02:20.873Z,10.43
2022-11-16T22:05:41.574Z,10.88
2022-11-16T22:08:43.363Z,10.89
2022-11-16T22:11:45.200Z,10.85
2022-11-16T22:14:46.986Z,10.49
2022-11-16T22:17:48.784Z,10.33
2022-11-16T22:20:50.605Z,10.26
2022-11-16T22:23:52.417Z,10.19
2022-11-16T22:26:54.288Z,10.24
2022-11-16T22:29:56.114Z,10.69
2022-11-16T22:32:57.968Z,11.57
2022-11-16T22:35:59.823Z,11.59
2022-11-16T22:39:02.151Z,10.66
2022-11-16T22:42:04.428Z,10.90
2022-11-16T22:45:06.402Z,11.21
2022-11-16T22:48:08.295Z,11.27
2022-11-16T22:51:22.318Z,11.52
2022-11-16T22:54:28.460Z,11.50
2022-11-16T22:57:30.680Z,10.96
2022-11-16T23:00:37.514Z,10.97
2022-11-16T23:03:42.690Z,11.63
2022-11-16T23:06:44.535Z,12.05
2022-11-16T23:09:46.331Z,12.40
2022-11-16T23:13:06.864Z,11.89
2022-11-16T23:16:08.798Z,11.63
2022-11-16T23:19:30.816Z,11.25
2022-11-16T23:22:51.152Z,11.45
2022-11-16T23:26:11.574Z,11.43
2022-11-16T23:29:13.375Z,12.04
2022-11-16T23:32:15.189Z,12.56
2022-11-16T23:35:17.221Z,12.59
2022-11-16T23:38:19.028Z,12.76
2022-11-16T23:41:39.654Z,12.63
2022-11-16T23:44:41.707Z,12.12
2022-11-16T23:47:43.495Z,12.70
2022-11-16T23:50:45.615Z,12.33
2022-11-16T23:53:47.428Z,11.84
2022-11-16T23:56:49.244Z,11.55
2022-11-16T23:59:51.060Z,11.71
